createdAt,value
2023-03-24T00:00:14.763Z,96221.97
2023-03-24T00:04:17.892Z,96219.81
2023-03-24T00:08:18.959Z,96222.50
2023-03-24T00:12:19.986Z,96209.75
2023-03-24T00:16:22.267Z,96219.84
2023-03-24T00:20:27.578Z,96213.97
2023-03-24T00:24:28.278Z,96205.41
2023-03-24T00:28:28.806Z,96203.28
2023-03-24T00:32:30.754Z,96198.00
2023-03-24T00:36:34.134Z,96158.63
2023-03-24T00:40:34.862Z,96184.13
2023-03-24T00:44:36.585Z,96172.91
2023-03-24T00:48:39.033Z,96180.25
2023-03-24T00:52:44.687Z,96176.59
2023-03-24T00:56:50.194Z,96177.59
2023-03-24T01:00:53.440Z,96165.81
2023-03-24T01:04:57.661Z,96163.06
2023-03-24T01:09:03.076Z,96152.50
2023-03-24T01:13:05.669Z,96140.19
2023-03-24T01:17:08.022Z,96161.03
2023-03-24T01:21:09.657Z,96171.47
2023-03-24T01:25:17.030Z,96171.50
2023-03-24T01:29:17.499Z,96191.53
2023-03-24T01:33:19.640Z,96193.66
2023-03-24T01:37:20.299Z,96171.84
2023-03-24T01:41:23.748Z,96176.63
2023-03-24T01:45:59.093Z,96174.25
2023-03-24T01:50:05.696Z,96172.34
2023-03-24T01:54:11.739Z,96176.09
2023-03-24T01:58:15.283Z,96176.97
2023-03-24T02:02:39.308Z,96163.94
2023-03-24T02:06:44.270Z,96157.81
2023-03-24T02:10:48.172Z,96168.47
2023-03-24T02:14:52.495Z,96170.31
2023-03-24T02:19:15.069Z,96178.34
2023-03-24T02:23:50.515Z,96169.03
2023-03-24T02:28:21.142Z,96149.31
2023-03-24T02:33:14.287Z,96145.88
2023-03-24T02:38:12.132Z,96135.75
2023-03-24T02:42:29.954Z,96123.50
2023-03-24T02:46:43.398Z,96094.75
2023-03-24T02:50:52.922Z,96080.63
2023-03-24T02:55:03.861Z,96074.03
2023-03-24T02:59:12.928Z,96069.72
2023-03-24T03:03:24.224Z,96070.53
2023-03-24T03:07:33.834Z,96067.81
2023-03-24T03:11:34.610Z,96066.97
2023-03-24T03:15:42.514Z,96064.88
2023-03-24T03:19:48.403Z,96057.94
2023-03-24T03:23:55.725Z,96047.31
2023-03-24T03:28:00.866Z,96048.38
2023-03-24T03:32:08.933Z,96023.28
2023-03-24T03:36:18.741Z,96026.97
2023-03-24T03:40:26.126Z,96024.84
2023-03-24T03:44:34.486Z,96028.59
2023-03-24T03:48:39.816Z,96024.88
2023-03-24T03:52:44.939Z,96026.69
2023-03-24T03:56:47.163Z,96019.28
2023-03-24T04:00:56.373Z,96024.34
2023-03-24T04:05:33.515Z,96020.13
2023-03-24T04:10:05.410Z,96018.56
2023-03-24T04:14:26.649Z,96016.94
2023-03-24T04:19:14.398Z,95995.63
2023-03-24T04:23:30.997Z,96008.47
2023-03-24T04:27:43.149Z,96021.75
2023-03-24T04:31:53.764Z,96015.44
2023-03-24T04:36:06.774Z,96007.03
2023-03-24T04:40:27.380Z,96006.84
2023-03-24T04:44:30.424Z,96012.94
2023-03-24T04:48:51.297Z,96005.22
2023-03-24T04:53:04.265Z,95995.69
2023-03-24T04:57:09.005Z,96007.38
2023-03-24T05:01:21.647Z,95997.31
2023-03-24T05:05:42.341Z,95988.81
2023-03-24T05:09:45.861Z,95987.28
2023-03-24T05:13:50.153Z,96003.19
2023-03-24T05:17:52.066Z,95997.84
2023-03-24T05:21:54.572Z,95998.81
2023-03-24T05:25:55.294Z,95995.03
2023-03-24T05:30:00.620Z,96000.88
2023-03-24T05:34:04.038Z,96000.84
2023-03-24T05:38:07.598Z,96001.41
2023-03-24T05:42:08.391Z,95999.31
2023-03-24T05:46:12.080Z,95999.75
2023-03-24T05:50:14.162Z,96031.19
2023-03-24T05:54:14.982Z,96023.28
2023-03-24T05:58:17.541Z,96014.22
2023-03-24T06:02:25.616Z,96008.84
2023-03-24T06:06:32.722Z,95992.31
2023-03-24T06:10:33.444Z,95985.91
2023-03-24T06:14:34.481Z,95986.41
2023-03-24T06:18:44.518Z,96003.41
2023-03-24T06:22:59.253Z,95999.56
2023-03-24T06:27:09.090Z,96005.38
2023-03-24T06:31:18.846Z,96011.91
2023-03-24T06:35:22.486Z,96011.19
2023-03-24T06:39:33.600Z,96022.59
2023-03-24T06:43:35.690Z,96015.94
2023-03-24T06:47:36.329Z,96001.09
2023-03-24T06:51:41.049Z,95997.84
2023-03-24T06:55:42.209Z,95995.13
2023-03-24T06:59:45.054Z,95989.72
2023-03-24T07:03:46.438Z,96005.38
2023-03-24T07:08:27.856Z,96010.59
2023-03-24T07:12:16.654Z,96001.03
2023-03-24T07:16:18.546Z,96013.31
2023-03-24T07:20:26.539Z,95999.44
2023-03-24T07:24:52.236Z,96037.00
2023-03-24T07:29:12.184Z,96036.16
2023-03-24T07:33:35.822Z,96033.19
2023-03-24T07:37:36.704Z,96033.84
2023-03-24T07:41:40.480Z,96046.38
2023-03-24T07:45:49.513Z,96056.13
2023-03-24T07:49:54.319Z,96059.44
2023-03-24T07:53:55.349Z,96067.69
2023-03-24T07:58:10.556Z,96074.03
2023-03-24T08:02:22.378Z,96079.47
2023-03-24T08:07:00.985Z,96087.06
2023-03-24T08:11:03.465Z,96084.94
2023-03-24T08:15:09.892Z,96096.81
2023-03-24T08:19:10.723Z,96088.19
2023-03-24T08:23:11.472Z,96083.34
2023-03-24T08:27:11.912Z,96085.22
2023-03-24T08:31:16.529Z,96078.38
2023-03-24T08:35:20.368Z,96071.25
2023-03-24T08:39:21.222Z,96075.34
2023-03-24T08:43:23.487Z,96069.78
2023-03-24T08:47:26.627Z,96067.16
2023-03-24T08:51:27.344Z,96070.63
2023-03-24T08:55:31.184Z,96070.06
2023-03-24T08:59:32.543Z,96069.97
2023-03-24T09:03:36.817Z,96076.47
2023-03-24T09:07:40.177Z,96080.56
2023-03-24T09:11:41.885Z,96095.19
2023-03-24T09:15:49.027Z,96079.84
2023-03-24T09:19:52.462Z,96102.56
2023-03-24T09:23:53.055Z,96101.06
2023-03-24T09:27:57.744Z,96113.53
2023-03-24T09:32:00.573Z,96104.47
2023-03-24T09:36:08.073Z,96109.19
2023-03-24T09:40:11.283Z,96106.34
2023-03-24T09:44:26.548Z,96116.16
2023-03-24T09:48:38.107Z,96110.19
2023-03-24T09:52:47.221Z,96117.56
2023-03-24T09:56:51.683Z,96121.91
2023-03-24T10:00:54.607Z,96118.69
2023-03-24T10:04:59.666Z,96126.66
2023-03-24T10:09:25.606Z,96114.19
2023-03-24T10:13:35.775Z,96116.09
2023-03-24T10:17:51.250Z,96066.56
2023-03-24T10:22:03.649Z,96100.06
2023-03-24T10:26:20.256Z,96094.72
2023-03-24T10:30:26.861Z,96097.53
2023-03-24T10:34:35.035Z,96106.28
2023-03-24T10:38:35.858Z,96108.34
2023-03-24T10:42:42.021Z,96099.84
2023-03-24T10:46:51.307Z,96097.84
2023-03-24T10:50:52.453Z,96117.66
2023-03-24T10:54:59.486Z,96099.44
2023-03-24T10:59:07.336Z,96107.81
2023-03-24T11:03:19.073Z,96095.94
2023-03-24T11:07:26.752Z,96114.31
2023-03-24T11:11:36.801Z,96099.84
2023-03-24T11:16:01.366Z,96087.06
2023-03-24T11:20:02.156Z,96092.06
2023-03-24T11:24:05.783Z,96081.00
2023-03-24T11:28:11.893Z,96107.91
2023-03-24T11:32:25.132Z,96103.59
2023-03-24T11:36:52.054Z,96116.19
2023-03-24T11:41:02.835Z,96102.34
2023-03-24T11:45:04.959Z,96100.66
2023-03-24T11:49:08.973Z,96066.88
2023-03-24T11:53:20.340Z,96077.00
2023-03-24T11:57:45.444Z,96075.69
2023-03-24T12:01:55.714Z,96077.47
2023-03-24T12:06:15.822Z,96068.44
2023-03-24T12:10:29.179Z,96059.47
2023-03-24T12:14:48.288Z,96069.31
2023-03-24T12:19:37.705Z,96065.94
2023-03-24T12:23:52.874Z,96032.00
2023-03-24T12:28:08.922Z,96032.16
2023-03-24T12:32:23.701Z,96037.91
2023-03-24T12:36:47.143Z,96046.28
2023-03-24T12:41:18.825Z,96024.53
2023-03-24T12:45:49.923Z,96023.69
2023-03-24T12:50:15.305Z,96013.44
2023-03-24T12:54:34.425Z,96029.84
2023-03-24T12:58:47.455Z,96006.59
2023-03-24T13:02:57.709Z,96008.75
2023-03-24T13:07:07.377Z,95986.03
2023-03-24T13:11:30.064Z,95993.19
2023-03-24T13:15:44.500Z,95983.75
2023-03-24T13:19:46.138Z,95973.31
2023-03-24T13:23:57.805Z,95959.19
2023-03-24T13:28:06.954Z,95958.44
2023-03-24T13:32:17.470Z,95941.72
2023-03-24T13:36:45.959Z,95926.88
2023-03-24T13:40:51.088Z,95926.59
2023-03-24T13:44:53.625Z,95935.63
2023-03-24T13:49:03.453Z,95940.81
2023-03-24T13:53:15.735Z,95933.69
2023-03-24T13:57:24.437Z,95918.28
2023-03-24T14:01:40.501Z,95926.84
2023-03-24T14:06:05.142Z,95948.31
2023-03-24T14:10:44.232Z,95978.97
2023-03-24T14:15:19.603Z,96001.56
2023-03-24T14:19:27.112Z,96006.44
2023-03-24T14:23:41.014Z,96013.25
2023-03-24T14:27:44.443Z,96014.09
2023-03-24T14:31:48.054Z,96014.72
2023-03-24T14:35:52.191Z,96016.66
2023-03-24T14:39:57.622Z,96001.88
2023-03-24T14:44:03.166Z,96011.78
2023-03-24T14:48:06.177Z,96013.41
2023-03-24T14:52:19.071Z,96003.47
2023-03-24T14:56:26.118Z,96010.88
2023-03-24T15:00:36.553Z,96005.66
2023-03-24T15:04:40.051Z,96006.47
2023-03-24T15:08:42.847Z,96005.41
2023-03-24T15:12:51.779Z,96019.03
2023-03-24T15:16:58.860Z,96039.59
2023-03-24T15:20:59.461Z,96046.38
2023-03-24T15:25:01.989Z,96048.44
2023-03-24T15:29:09.506Z,96038.56
2023-03-24T15:33:14.343Z,96041.09
2023-03-24T15:37:26.277Z,96047.16
2023-03-24T15:41:26.884Z,96038.31
2023-03-24T15:45:33.931Z,96047.03
2023-03-24T15:49:37.899Z,96056.28
2023-03-24T15:53:49.571Z,96045.75
2023-03-24T15:57:52.001Z,96054.41
2023-03-24T16:01:56.342Z,96044.38
2023-03-24T16:06:01.828Z,96047.00
2023-03-24T16:10:10.265Z,96060.78
2023-03-24T16:14:33.614Z,96053.66
2023-03-24T16:18:41.097Z,96047.13
2023-03-24T16:22:57.269Z,96046.66
2023-03-24T16:26:57.812Z,96053.50
2023-03-24T16:31:04.086Z,96057.66
2023-03-24T16:35:04.854Z,96049.41
2023-03-24T16:39:18.825Z,96060.84
2023-03-24T16:43:20.003Z,96042.16
2023-03-24T16:47:20.466Z,96045.09
2023-03-24T16:51:22.146Z,96034.16
2023-03-24T16:55:26.418Z,96040.00
2023-03-24T16:59:27.413Z,96041.66
2023-03-24T17:03:30.181Z,96033.13
2023-03-24T17:07:31.411Z,96035.72
2023-03-24T17:11:38.963Z,96042.16
2023-03-24T17:15:39.401Z,96045.63
2023-03-24T17:19:42.179Z,96050.69
2023-03-24T17:23:44.434Z,96033.06
2023-03-24T17:27:48.229Z,96043.75
2023-03-24T17:31:48.849Z,96045.03
2023-03-24T17:35:49.492Z,96046.88
2023-03-24T17:39:49.933Z,96044.53
2023-03-24T17:43:54.829Z,96066.09
2023-03-24T17:47:56.567Z,96035.66
2023-03-24T17:51:57.948Z,96057.97
2023-03-24T17:56:06.071Z,96054.34
2023-03-24T18:00:15.032Z,96066.88
2023-03-24T18:04:17.845Z,96068.75
2023-03-24T18:08:20.485Z,96073.53
2023-03-24T18:12:24.285Z,96082.06
2023-03-24T18:16:31.147Z,96066.91
2023-03-24T18:20:33.062Z,96089.50
2023-03-24T18:24:36.672Z,96074.63
2023-03-24T18:28:40.083Z,96085.25
2023-03-24T18:32:45.604Z,96085.28
2023-03-24T18:36:50.582Z,96096.44
2023-03-24T18:40:59.719Z,96090.63
2023-03-24T18:45:02.818Z,96092.50
2023-03-24T18:49:08.502Z,96094.38
2023-03-24T18:53:10.264Z,96102.91
2023-03-24T18:57:12.881Z,96111.94
2023-03-24T19:01:23.272Z,96095.94
2023-03-24T19:05:30.015Z,96099.16
2023-03-24T19:09:32.602Z,96084.25
2023-03-24T19:13:35.384Z,96101.78
2023-03-24T19:17:37.595Z,96099.13
2023-03-24T19:21:44.269Z,96107.09
2023-03-24T19:25:46.875Z,96129.38
2023-03-24T19:29:51.079Z,96126.69
2023-03-24T19:33:54.589Z,96140.94
2023-03-24T19:38:00.341Z,96131.88
2023-03-24T19:42:04.667Z,96138.81
2023-03-24T19:46:08.144Z,96128.63
2023-03-24T19:50:11.689Z,96140.63
2023-03-24T19:54:18.485Z,96124.59
2023-03-24T19:58:21.877Z,96133.44
2023-03-24T20:02:25.297Z,96137.16
2023-03-24T20:06:28.298Z,96136.16
2023-03-24T20:10:32.825Z,96144.41
2023-03-24T20:14:37.579Z,96155.75
2023-03-24T20:18:40.767Z,96151.56
2023-03-24T20:22:46.123Z,96146.25
2023-03-24T20:26:49.395Z,96130.84
2023-03-24T20:30:52.119Z,96168.59
2023-03-24T20:34:53.021Z,96178.06
2023-03-24T20:38:53.681Z,96186.63
2023-03-24T20:42:56.733Z,96180.50
2023-03-24T20:46:59.363Z,96171.69
2023-03-24T20:51:00.297Z,96180.25
2023-03-24T20:55:01.668Z,96187.69
2023-03-24T20:59:07.069Z,96188.25
2023-03-24T21:03:08.061Z,96180.31
2023-03-24T21:07:08.747Z,96185.63
2023-03-24T21:11:09.810Z,96186.09
2023-03-24T21:15:14.197Z,96162.72
2023-03-24T21:19:16.364Z,96185.56
2023-03-24T21:23:18.768Z,96178.31
2023-03-24T21:27:21.824Z,96178.88
2023-03-24T21:31:29.122Z,96174.94
2023-03-24T21:35:31.753Z,96185.06
2023-03-24T21:39:32.923Z,96168.59
2023-03-24T21:43:35.111Z,96174.97
2023-03-24T21:47:38.745Z,96172.06
2023-03-24T21:51:43.011Z,96173.69
2023-03-24T21:55:44.527Z,96134.84
2023-03-24T21:59:45.125Z,96168.16
2023-03-24T22:03:48.181Z,96126.09
2023-03-24T22:07:50.360Z,96163.59
2023-03-24T22:11:53.157Z,96163.84
2023-03-24T22:15:58.022Z,96156.41
2023-03-24T22:20:01.487Z,96171.81
2023-03-24T22:24:02.269Z,96177.13
2023-03-24T22:28:03.020Z,96183.97
2023-03-24T22:32:04.112Z,96175.00
2023-03-24T22:36:08.952Z,96175.25
2023-03-24T22:40:13.643Z,96177.16
2023-03-24T22:44:15.969Z,96188.06
2023-03-24T22:48:16.391Z,96184.63
2023-03-24T22:52:19.617Z,96189.28
2023-03-24T22:56:20.704Z,96184.84
2023-03-24T23:00:22.873Z,96187.22
2023-03-24T23:04:23.957Z,96186.22
2023-03-24T23:08:29.780Z,96198.72
2023-03-24T23:12:32.397Z,96198.41
2023-03-24T23:16:33.430Z,96207.22
2023-03-24T23:20:33.998Z,96195.34
2023-03-24T23:24:39.765Z,96201.22
2023-03-24T23:28:40.468Z,96194.25
2023-03-24T23:32:44.367Z,96200.41
2023-03-24T23:36:50.112Z,96211.28
2023-03-24T23:40:53.413Z,96221.00
2023-03-24T23:44:54.186Z,96233.22
2023-03-24T23:48:54.998Z,96240.13
2023-03-24T23:52:55.621Z,96227.38
2023-03-24T23:56:58.558Z,96237.81
